Sangster International Airport
MKJS : rendu visible

Aérodrome :











RETROUVEZ-NOUS SUR...

 
LOGIN :

S'inscrire | Disclaimer

   EN    FR    IT 

 









Légende :    VFR   VFR Marginal   IFR   IFR Intensif   IFR Très Intensif
Visi : 
Plafond : 
>= 8 km
>= 3000ft
5 à 8 km
1000 à 3000 ft
1500m à 5 km
500 à 1000 ft
800 à 1500m
200 à 500 ft
< 800m
< 200 ft
Symboles :   Orages  Brouillard  Fortes neiges  Fortes précipitations  Vent > 20 kt






- Altitude de l'aérodrome : 4 ft
- Code IATA : MBJ


MKJS - Sangster International

DERNIER METAR :
  • 231900Z 07019KT 9999 SCT022 28/23 Q1013

METARs EXPIRÉS :
  • 231800Z 07016KT 9999 BKN022 28/22 Q1014
  • 231700Z 09014KT 9999 FEW022 SCT032 29/23 Q1015

TAF TAF MKJS
Valide du 23 à 18h jusqu'au 24 à 18h UTC


231715Z 2318/2418 08018KT 9999 SCT022
PROB30
TEMPO 2320/2324 SHRA BKN020
BECMG 2400/2402 11007KT
BECMG 2413/2415 08020KT



MET'MAP, la Météo Aéronautique d'un coup d'oeil ! - Copyright ORBIFLY Décembre 2007 - Disclaimer

ORBIFLY MET'MAP TEAM :

Programmation & Développement : Alexandra Zaïnal
Sur une idée originale de : Baudouin d'Aumeries
Assistance à la programmation : Marc-Olivier Méhu
Soutien technique & logistique : Manuel Goepfert

Contact : metmap@orbifly.com




SOURCES & CREDITS :

   NOAA       Earth
Advisory